Hughesville, MO (65334)

11:06 AM CDT on July 24, 2014 (GMT -0500)
Sedalia Memorial (KDMO) Elev 909 ft | 38.71 °N, 93.18 °W | Change Station

Current weather conditions updated 13 minutes ago

Clear
Clear
78 °F
Feels Like 78 °F
N
10
Wind Variable Wind from ESE

Today is forecast to be Cooler than yesterday.

Today
High -- | Low -- °F
--% Chance of Precip.
Yesterday
High -- | Low -- °F
Precip. -- in
6:07 AM 8:31 PM
Waning Crescent, 5% visible
Pressure 30.16 in
Visibility 5.0 miles
Clouds Clear
Dew Point 58 °F
Humidity 50%
Rainfall 0.00 in
Snow Depth Not available.
UV 8 out of 12
Pollen 5.70 out of 12
Air Quality Not available.
Flu Activity Not available.
METAR KDMO 241553Z AUTO 12009KT 5SM HZ CLR 26/14 A3018 RMK AO2 SLP211 T02560144

More Conditions Fewer Conditions

Pressure 30.16 in
Visibility 5.0 miles
Clouds Clear
Dew Point 58 °F
Humidity 50%
Rainfall 0.00 in
Snow Depth Not available.
UV 8 out of 12
Pollen 5.70 out of 12
Air Quality Not available.
Flu Activity Not available.
METAR KDMO 241553Z AUTO 12009KT 5SM HZ CLR 26/14 A3018 RMK AO2 SLP211 T02560144

More Conditions Fewer Conditions

10-Day Weather Forecast

Almanac

Astronomy

Jul. 24, 2014 Rise Set
Actual Time 6:07 AM CDT 8:31 PM CDT
Civil Twilight 5:36 AM CDT 9:01 PM CDT
Nautical Twilight 4:59 AM CDT 9:38 PM CDT
Astronomical Twilight 4:17 AM CDT 10:20 PM CDT
Moon 4:15 AM CDT 6:47 PM CDT
Length of Visible Light 15h 24m
Length of Day
14h 24m
Tomorrow will be 1m 40s shorter.
Waning Crescent, 5% of the Moon is Illuminated
Today
Waning Crescent
Jul 26
New
Aug 3
First Quarter
Aug 10
Full
Aug 17
Last Quarter

Today's Extremes

State Highs State Lows

Community

WunderPhotos

Upload Photos

1,737,055 photos uploaded!

Nearby

Snow Depth

Station Depth Elevation
No new snow has been reported.

Earthquake Activity

City Distance Mag. Time & Date
No recent earthquake activity has been reported nearby.
Minimum magnitude displayed is 2.5.

Coastal Water Temperatures

Place Temperature
No Stations Reporting

Nearby Weather Stations

Station Location Temp. Heat Index Dew Point Humidity Wind Precip. Elev Updated Type
MesoWest SEDLIA , Sedalia, MO 88 °F 85 °F - - North  at  - 0.00 in / hr 823 ft 10:05 AM CDT MADIS
Sedalia, MO 76.5 °F 78 °F 59 °F 56% SSE  at  5.0 mph 0.00 in / hr 837 ft 11:06 AM CDT Rapid Fire
MesoWest BLKWTR , Blackwater, MO 73 °F 71 °F - - North  at  - 0.00 in / hr 625 ft 9:55 AM CDT MADIS
MesoWest MRSHLL , Marshall, MO 70 °F - - - North  at  - 0.00 in / hr 641 ft 9:20 AM CDT MADIS
KMMO Radio, Marshall, Missouri, Marshall, MO 74.0 °F 77 °F 55 °F 51% SE  at  5.0 mph 0.00 in / hr 791 ft 11:06 AM CDT Rapid Fire
MesoWest OTRVLE , Syracuse, MO 70 °F - - - North  at  - 0.00 in / hr 849 ft 9:05 AM CDT MADIS
MesoWest KNBSTR , Knob Noster, MO 70 °F - - - North  at  - 0.00 in / hr 768 ft 9:15 AM CDT MADIS
MesoWest BLOSER , Malta Bend, MO 70 °F - - - North  at  - 0.00 in / hr 687 ft 9:05 AM CDT MADIS

Show More Stations Show Fewer Stations